首页
METAR-TAF:

METAR-TAF

机场 :

麦卡伦国际机场

拉斯维加斯, 内华达州, 美国

纬度: 36-04-44N, 经度: 115-09-19W, 海拔: 663米

当前天气观测

该预报发布于40分钟前的11:56 UTC
风速5节,风向西
温度 31°C
湿度 38%
气压 1015 hPa
能見度: 16.1公里
少量云层高于14000英尺

METAR: KLAS 181156Z 28005KT 10SM FEW140 31/15 A2998 RMK AO2 SLP120 T03110150 10356 20311 53002

时间: 05:36 (12:36 UTC)

预报

该预报发布于1小时和12分钟前的11:24 UTC
预报有效从18日的 12点(UTC)到 19日的 18点(UTC)
风速8节,风向南转西南
能見度: 10公里
少量云层高于14000英尺
从 18日的 1400点(UTC)
风速5节,风向多变
能見度: 10公里
少量云层高于14000英尺
从 19日的 0500点(UTC)
风速8节,风向南转西南
能見度: 10公里
天空无云
从 19日的 1400点(UTC)
风速5节,风向多变
能見度: 10公里
少量云层高于14000英尺

TAF: KLAS 181124Z 1812/1918 20008KT P6SM FEW140 FM181400 VRB05KT P6SM FEW140 FM190500 20008KT P6SM SKC FM191400 VRB05KT P6SM FEW140

超过4000个机场的气象观测和天气预报(METAR&TAF报告)。

可查询的气象台以黄色和红色小点在地图上表示。

将鼠标移到小点上方,可查看气象台名称。

然后点击查看天气观测和预报。

如需切换地图:点击带黑十字的绿色按钮放大地图;点击带横线的绿色按钮缩小地图;或者点击绿色箭头查看邻近地区的地图。


METAR-TAF: